Time;durP1;ratioP1;P1;durP2;ratioP2;P2;SDS_P1;SDS_P2;PMS_P1;PMS_P2;Temp;Humidity;BMP_temperature;BMP_pressure;BME280_temperature;BME280_humidity;BME280_pressure;Samples;Min_cycle;Max_cycle;Signal;HPM_P1;HPM_P2
2021/10/22 00:01:00;;;;;;;16.53;9.53;;;12.90;99.90;;;;;;4175904;28;20082;-64
2021/10/22 00:03:02;;;;;;;9.13;6.20;;;13.00;99.90;;;;;;4176846;28;20106;-63
2021/10/22 00:05:03;;;;;;;8.50;5.93;;;13.00;99.90;;;;;;4175496;28;20505;-63
2021/10/22 00:07:05;;;;;;;13.83;5.77;;;13.10;99.90;;;;;;4177262;28;20029;-63
2021/10/22 00:09:06;;;;;;;8.30;4.97;;;13.10;99.90;;;;;;4175738;28;20075;-65
2021/10/22 00:11:07;;;;;;;7.67;4.77;;;13.20;99.90;;;;;;4176797;28;20041;-63
2021/10/22 00:13:11;;;;;;;6.27;4.50;;;13.20;99.90;;;;;;4175941;28;20041;-63
2021/10/22 00:15:12;;;;;;;7.20;5.60;;;13.30;99.90;;;;;;4176506;28;20045;-63
2021/10/22 00:17:14;;;;;;;11.70;6.23;;;13.30;99.90;;;;;;4175725;28;20094;-62
2021/10/22 00:19:15;;;;;;;8.27;6.53;;;13.30;99.90;;;;;;4177306;28;20029;-62
2021/10/22 00:21:16;;;;;;;8.00;5.37;;;13.30;99.90;;;;;;4175863;28;20041;-62
2021/10/22 00:23:18;;;;;;;12.60;7.47;;;13.30;99.90;;;;;;4176499;28;20439;-62
2021/10/22 00:25:22;;;;;;;12.03;8.43;;;13.30;99.90;;;;;;4175926;28;20027;-63
2021/10/22 00:27:23;;;;;;;10.67;6.43;;;13.20;99.90;;;;;;4176344;28;20037;-62
2021/10/22 00:29:24;;;;;;;15.67;9.43;;;13.20;99.90;;;;;;4175712;28;20178;-62
2021/10/22 00:31:26;;;;;;;12.83;7.63;;;13.20;99.90;;;;;;4175796;28;20033;-63
2021/10/22 00:33:28;;;;;;;11.93;7.10;;;13.10;99.90;;;;;;4176386;28;20483;-62
2021/10/22 00:35:29;;;;;;;19.10;11.47;;;13.10;99.90;;;;;;4175493;28;20079;-62
2021/10/22 00:37:30;;;;;;;22.77;12.83;;;13.00;99.90;;;;;;4176856;28;20461;-61
2021/10/22 00:39:31;;;;;;;20.00;12.40;;;12.90;99.90;;;;;;4175345;28;20090;-61
2021/10/22 00:41:34;;;;;;;20.10;13.33;;;12.80;99.90;;;;;;4176658;28;20427;-62
2021/10/22 00:43:35;;;;;;;25.63;13.73;;;12.70;99.90;;;;;;4174948;28;20041;-62
2021/10/22 00:45:36;;;;;;;24.77;13.00;;;12.60;99.90;;;;;;4176840;28;20033;-62
2021/10/22 00:47:37;;;;;;;24.10;13.17;;;12.60;99.90;;;;;;4175067;28;20170;-61
2021/10/22 00:49:38;;;;;;;21.10;12.67;;;12.50;99.90;;;;;;4175699;28;20040;-62
2021/10/22 00:51:41;;;;;;;24.47;14.93;;;12.50;99.90;;;;;;4157441;28;20087;-62
2021/10/22 00:53:42;;;;;;;29.23;17.17;;;12.50;99.90;;;;;;4175827;28;20021;-62
2021/10/22 00:55:44;;;;;;;26.77;16.87;;;12.50;99.90;;;;;;4175123;28;20078;-63
2021/10/22 00:57:46;;;;;;;31.23;17.03;;;12.50;99.90;;;;;;4174427;28;20037;-63
2021/10/22 00:59:47;;;;;;;29.40;16.80;;;12.50;99.90;;;;;;4175729;28;20036;-62
2021/10/22 01:01:48;;;;;;;26.20;16.93;;;12.60;99.90;;;;;;4175998;28;20091;-62
2021/10/22 01:03:49;;;;;;;32.13;17.97;;;12.60;99.90;;;;;;4175963;28;20044;-62
2021/10/22 01:05:51;;;;;;;30.13;17.73;;;12.60;99.90;;;;;;4175116;28;20428;-61
2021/10/22 01:07:52;;;;;;;27.50;16.03;;;12.60;99.90;;;;;;4174831;28;20057;-62
2021/10/22 01:09:53;;;;;;;28.70;16.23;;;12.70;99.90;;;;;;4174766;28;20432;-64
2021/10/22 01:11:54;;;;;;;30.53;17.40;;;12.60;99.90;;;;;;4175707;28;20029;-64
2021/10/22 01:13:56;;;;;;;31.47;17.13;;;12.70;99.90;;;;;;4175083;28;20037;-62
2021/10/22 01:15:57;;;;;;;27.23;16.30;;;12.60;99.90;;;;;;4176475;28;20033;-63
2021/10/22 01:18:00;;;;;;;27.77;15.93;;;12.60;99.90;;;;;;4175103;28;20032;-63
2021/10/22 01:20:02;;;;;;;31.00;16.10;;;12.60;99.90;;;;;;4157993;28;20041;-62
2021/10/22 01:22:03;;;;;;;28.50;15.20;;;12.60;99.90;;;;;;4173596;28;20091;-62
2021/10/22 01:24:04;;;;;;;28.73;16.80;;;12.50;99.90;;;;;;4175969;28;20374;-63
2021/10/22 01:26:06;;;;;;;32.93;14.67;;;12.50;99.90;;;;;;4174941;28;20013;-62
2021/10/22 01:28:08;;;;;;;23.97;14.13;;;12.60;99.90;;;;;;4175790;28;20095;-61
2021/10/22 01:30:14;;;;;;;25.20;14.67;;;12.60;99.90;;;;;;4175468;28;20033;-63
2021/10/22 01:32:15;;;;;;;22.37;13.47;;;12.60;99.90;;;;;;4175328;28;20099;-63
2021/10/22 01:34:17;;;;;;;25.77;12.43;;;12.60;99.90;;;;;;4174504;28;20888;-64
2021/10/22 01:36:18;;;;;;;24.43;12.27;;;12.60;99.90;;;;;;4174730;28;20552;-62
2021/10/22 01:38:22;;;;;;;25.40;13.23;;;12.70;99.90;;;;;;4175062;28;20041;-63
2021/10/22 01:40:23;;;;;;;24.73;12.73;;;12.70;99.90;;;;;;4174745;28;20033;-63
2021/10/22 01:42:25;;;;;;;21.77;12.90;;;12.70;99.90;;;;;;4175276;28;20772;-63
2021/10/22 01:44:27;;;;;;;22.37;13.47;;;12.70;99.90;;;;;;4174473;28;20032;-63
2021/10/22 01:46:29;;;;;;;18.57;12.03;;;12.80;99.90;;;;;;4187602;28;20374;-64
2021/10/22 01:48:30;;;;;;;24.50;13.23;;;12.80;99.90;;;;;;4189979;28;20056;-63
2021/10/22 01:50:31;;;;;;;26.27;15.70;;;12.80;99.90;;;;;;4192195;28;20078;-64
2021/10/22 01:52:32;;;;;;;24.47;15.90;;;12.80;99.90;;;;;;4181520;28;20073;-61
2021/10/22 01:54:33;;;;;;;29.17;16.40;;;12.70;99.90;;;;;;4175432;28;20033;-63
2021/10/22 01:56:35;;;;;;;27.13;14.77;;;12.70;99.90;;;;;;4174240;28;20024;-63
2021/10/22 01:58:36;;;;;;;21.87;14.30;;;12.60;99.90;;;;;;4175627;28;20045;-62
2021/10/22 02:00:38;;;;;;;21.87;14.30;;;12.60;99.90;;;;;;4173081;28;20031;-62
2021/10/22 02:02:40;;;;;;;24.10;14.60;;;12.60;99.90;;;;;;4175082;28;20771;-64
2021/10/22 02:04:41;;;;;;;25.93;14.33;;;12.60;99.90;;;;;;4173689;28;20094;-63
2021/10/22 02:06:43;;;;;;;29.67;15.00;;;12.60;99.90;;;;;;4174568;28;20041;-63
2021/10/22 02:08:44;;;;;;;24.23;13.57;;;12.60;99.90;;;;;;4174256;28;20053;-62
2021/10/22 02:10:45;;;;;;;26.23;13.90;;;12.60;99.90;;;;;;4173470;28;20072;-63
2021/10/22 02:12:46;;;;;;;28.37;13.70;;;12.50;99.90;;;;;;4175015;28;20491;-62
2021/10/22 02:14:47;;;;;;;22.77;13.30;;;12.50;99.90;;;;;;4174186;28;20025;-61
2021/10/22 02:16:48;;;;;;;24.03;13.07;;;12.40;99.90;;;;;;4175343;28;20078;-63
2021/10/22 02:18:50;;;;;;;19.57;11.27;;;12.40;99.90;;;;;;4173968;28;20045;-63
2021/10/22 02:20:51;;;;;;;19.23;10.93;;;12.40;99.90;;;;;;4175205;28;20424;-63
2021/10/22 02:22:53;;;;;;;19.10;10.73;;;12.40;99.90;;;;;;4173253;28;20017;-63
2021/10/22 02:24:54;;;;;;;14.13;9.10;;;12.40;99.90;;;;;;4175110;28;20029;-63
2021/10/22 02:26:55;;;;;;;12.73;7.20;;;12.40;99.90;;;;;;4173415;28;20123;-62
2021/10/22 02:28:57;;;;;;;11.37;7.67;;;12.40;99.90;;;;;;4175010;28;20040;-62
2021/10/22 02:30:59;;;;;;;10.43;6.60;;;12.40;99.90;;;;;;4173296;28;20021;-62
2021/10/22 02:33:01;;;;;;;8.90;5.40;;;12.40;99.90;;;;;;4175333;28;20025;-62
2021/10/22 02:35:02;;;;;;;7.47;4.63;;;12.50;99.90;;;;;;4174241;28;20118;-63
2021/10/22 02:37:04;;;;;;;8.80;4.47;;;12.50;99.90;;;;;;4174212;28;20037;-63
2021/10/22 02:39:05;;;;;;;4.67;3.83;;;12.50;99.90;;;;;;4173560;28;20071;-62
2021/10/22 02:41:07;;;;;;;8.37;3.83;;;12.60;99.90;;;;;;4173431;28;20427;-62
2021/10/22 02:43:08;;;;;;;6.13;3.67;;;12.60;99.90;;;;;;4174861;28;20444;-63
2021/10/22 02:45:10;;;;;;;6.07;3.60;;;12.60;99.90;;;;;;4173350;28;20036;-62
2021/10/22 02:47:11;;;;;;;8.23;4.33;;;12.60;99.90;;;;;;4174499;28;20076;-64
2021/10/22 02:49:12;;;;;;;6.17;3.90;;;12.60;99.90;;;;;;4173285;28;20045;-63
2021/10/22 02:51:13;;;;;;;8.33;4.40;;;12.60;99.90;;;;;;4174335;28;20044;-62
2021/10/22 02:53:15;;;;;;;8.37;4.00;;;12.50;99.90;;;;;;4172477;28;20037;-63
2021/10/22 02:55:16;;;;;;;4.97;3.47;;;12.50;99.90;;;;;;4174544;28;20047;-62
2021/10/22 02:57:18;;;;;;;6.33;3.70;;;12.50;99.90;;;;;;4172315;28;20122;-63
2021/10/22 02:59:19;;;;;;;19.17;4.87;;;12.50;99.90;;;;;;4156838;28;20029;-63
2021/10/22 03:01:20;;;;;;;7.10;3.80;;;12.50;99.90;;;;;;4172938;28;20445;-61
2021/10/22 03:03:21;;;;;;;4.43;3.33;;;12.50;99.90;;;;;;4174628;28;20099;-62
2021/10/22 03:05:23;;;;;;;4.27;3.17;;;12.60;99.90;;;;;;4173637;28;20033;-63
2021/10/22 03:07:24;;;;;;;4.67;3.27;;;12.60;99.90;;;;;;4173470;28;20040;-63
2021/10/22 03:09:25;;;;;;;9.40;3.07;;;12.60;99.90;;;;;;4173975;28;20033;-62
2021/10/22 03:11:27;;;;;;;5.90;3.30;;;12.60;99.90;;;;;;4172919;28;20091;-63
2021/10/22 03:13:28;;;;;;;4.73;3.13;;;12.50;99.90;;;;;;4174553;28;20033;-62
2021/10/22 03:15:29;;;;;;;5.87;3.57;;;12.50;99.90;;;;;;4172897;28;20029;-62
2021/10/22 03:17:30;;;;;;;6.63;2.77;;;12.50;99.90;;;;;;4172964;28;20037;-62
2021/10/22 03:19:32;;;;;;;4.40;2.77;;;12.40;99.90;;;;;;4172948;28;20452;-62
2021/10/22 03:21:33;;;;;;;3.90;2.60;;;12.30;99.90;;;;;;4173650;28;20191;-63
2021/10/22 03:23:34;;;;;;;3.63;2.33;;;12.30;99.90;;;;;;4173093;28;20074;-63
2021/10/22 03:25:36;;;;;;;3.43;2.07;;;12.30;99.90;;;;;;4173895;28;20037;-62
2021/10/22 03:27:37;;;;;;;5.90;2.77;;;12.30;99.90;;;;;;4172892;28;20045;-63
2021/10/22 03:29:39;;;;;;;4.07;2.60;;;12.20;99.90;;;;;;4173684;28;20094;-61
2021/10/22 03:31:40;;;;;;;4.87;2.50;;;12.20;99.90;;;;;;4172756;28;20563;-63
2021/10/22 03:33:41;;;;;;;3.67;2.30;;;12.20;99.90;;;;;;4173930;28;20025;-63
2021/10/22 03:35:42;;;;;;;6.17;2.40;;;12.20;99.90;;;;;;4172137;28;20033;-63
2021/10/22 03:37:44;;;;;;;3.53;2.30;;;12.20;99.90;;;;;;4172735;28;20033;-63
2021/10/22 03:39:46;;;;;;;4.47;2.77;;;12.20;99.90;;;;;;4173163;28;20032;-63
2021/10/22 03:41:47;;;;;;;2.77;2.10;;;12.20;99.90;;;;;;4173099;28;20029;-64
2021/10/22 03:43:48;;;;;;;3.03;2.20;;;12.20;99.90;;;;;;4173475;28;20174;-64
2021/10/22 03:45:49;;;;;;;4.43;2.20;;;12.20;99.90;;;;;;4172325;28;20103;-63
2021/10/22 03:47:50;;;;;;;4.40;2.50;;;12.20;99.90;;;;;;4174201;28;20082;-63
2021/10/22 03:49:51;;;;;;;4.47;2.60;;;12.20;99.90;;;;;;4172558;28;20071;-65
2021/10/22 03:51:53;;;;;;;5.63;2.20;;;12.20;99.90;;;;;;4173032;28;20033;-63
2021/10/22 03:53:54;;;;;;;4.83;2.60;;;12.20;99.90;;;;;;4171954;28;20091;-64
2021/10/22 03:55:55;;;;;;;4.30;2.20;;;12.20;99.90;;;;;;4172664;28;20070;-64
2021/10/22 03:57:56;;;;;;;6.33;2.60;;;12.20;99.90;;;;;;4172318;28;20052;-62
2021/10/22 03:59:58;;;;;;;6.17;2.80;;;12.20;99.90;;;;;;4173093;28;20774;-61
2021/10/22 04:01:59;;;;;;;6.97;1.97;;;12.20;99.90;;;;;;4171141;28;20029;-63
2021/10/22 04:04:00;;;;;;;6.87;2.97;;;12.20;99.90;;;;;;4169290;28;20074;-62
2021/10/22 04:06:02;;;;;;;3.33;1.97;;;12.30;99.90;;;;;;4168932;28;20029;-63
2021/10/22 04:08:03;;;;;;;1.73;1.57;;;12.20;99.90;;;;;;4168966;28;20554;-63
2021/10/22 04:10:06;;;;;;;3.67;2.10;;;12.20;99.90;;;;;;4167797;28;20053;-63
2021/10/22 04:12:07;;;;;;;4.17;2.17;;;12.20;99.90;;;;;;4167847;28;20029;-63
2021/10/22 04:14:08;;;;;;;4.63;2.70;;;12.20;99.90;;;;;;4167851;28;20032;-63
2021/10/22 04:16:10;;;;;;;4.40;3.23;;;12.20;99.90;;;;;;4156239;28;20045;-61
2021/10/22 04:18:11;;;;;;;6.23;3.73;;;12.10;99.90;;;;;;4170373;28;20057;-63
2021/10/22 04:20:12;;;;;;;5.07;3.50;;;12.10;99.90;;;;;;4165774;28;21582;-63
2021/10/22 04:22:14;;;;;;;8.37;3.67;;;12.10;99.90;;;;;;4168251;28;20041;-62
2021/10/22 04:24:15;;;;;;;4.83;2.83;;;12.10;99.90;;;;;;4167235;28;20650;-61
2021/10/22 04:26:16;;;;;;;4.70;3.47;;;12.10;99.90;;;;;;4170042;28;20102;-61
2021/10/22 04:28:17;;;;;;;7.67;3.97;;;12.00;99.90;;;;;;4166793;28;20025;-62
2021/10/22 04:30:18;;;;;;;5.43;3.60;;;12.00;99.90;;;;;;4168830;28;20099;-64
2021/10/22 04:32:19;;;;;;;6.17;3.83;;;12.00;99.90;;;;;;4158735;28;20041;-64
2021/10/22 04:34:24;;;;;;;6.03;4.00;;;11.90;99.90;;;;;;4166942;28;20107;-61
2021/10/22 04:36:25;;;;;;;6.47;3.93;;;11.90;99.90;;;;;;4165945;28;20075;-61
2021/10/22 04:40:45;;;;;;;6.53;3.17;;;11.90;99.90;;;;;;4168842;28;20382;-62
2021/10/22 04:42:48;;;;;;;8.50;4.00;;;11.90;99.90;;;;;;4172502;28;20060;-63
2021/10/22 04:44:49;;;;;;;5.20;3.27;;;11.90;99.90;;;;;;4173933;28;20888;-61
2021/10/22 04:46:50;;;;;;;5.50;3.03;;;11.90;99.90;;;;;;4153214;28;20075;-62
2021/10/22 04:48:52;;;;;;;6.70;3.30;;;11.90;99.90;;;;;;4173808;28;20053;-63
2021/10/22 04:50:53;;;;;;;3.73;3.17;;;11.90;99.90;;;;;;4171716;28;20566;-62
2021/10/22 04:52:55;;;;;;;5.37;3.43;;;11.90;99.90;;;;;;4166877;28;20122;-63
2021/10/22 04:54:56;;;;;;;8.53;3.40;;;11.90;99.90;;;;;;4175398;28;20029;-60
2021/10/22 04:56:57;;;;;;;8.40;3.77;;;11.90;99.90;;;;;;4175580;28;20033;-62
2021/10/22 04:58:58;;;;;;;4.50;3.00;;;11.90;99.90;;;;;;4182940;28;20086;-61
2021/10/22 05:01:00;;;;;;;5.53;2.83;;;11.90;99.90;;;;;;4192057;28;20082;-63
2021/10/22 05:03:02;;;;;;;5.23;3.67;;;11.90;99.90;;;;;;4191825;28;20028;-62
2021/10/22 05:05:04;;;;;;;9.00;5.03;;;12.00;99.90;;;;;;4192324;28;20028;-61
2021/10/22 05:07:05;;;;;;;5.53;2.67;;;12.00;99.90;;;;;;4191118;28;20093;-62
2021/10/22 05:09:06;;;;;;;4.07;3.13;;;12.00;99.90;;;;;;4191946;28;20542;-61
2021/10/22 05:11:07;;;;;;;4.53;2.70;;;12.00;99.90;;;;;;4190553;28;20048;-62
2021/10/22 05:13:09;;;;;;;4.17;2.90;;;12.00;99.90;;;;;;4192290;28;20481;-62
2021/10/22 05:15:10;;;;;;;8.20;3.80;;;12.00;99.90;;;;;;4191381;28;20036;-62
2021/10/22 05:17:12;;;;;;;4.87;3.40;;;12.00;99.90;;;;;;4191642;28;20432;-61
2021/10/22 05:19:13;;;;;;;4.67;2.80;;;12.00;99.90;;;;;;4191265;28;20066;-61
2021/10/22 05:21:14;;;;;;;5.10;3.53;;;12.00;99.90;;;;;;4191429;28;20102;-63
2021/10/22 05:23:16;;;;;;;5.33;2.93;;;12.00;99.90;;;;;;4192136;28;20469;-62
2021/10/22 05:25:17;;;;;;;5.47;3.87;;;12.00;99.90;;;;;;4190942;28;20641;-64
2021/10/22 05:27:18;;;;;;;5.10;4.40;;;12.00;99.90;;;;;;4192450;28;20086;-61
2021/10/22 05:29:19;;;;;;;7.27;4.07;;;12.00;99.90;;;;;;4189898;28;20044;-62
2021/10/22 05:31:21;;;;;;;6.73;4.43;;;12.10;99.90;;;;;;4192297;28;20017;-61
2021/10/22 05:33:22;;;;;;;6.70;3.63;;;12.10;99.90;;;;;;4189734;28;20051;-62
2021/10/22 05:35:24;;;;;;;6.70;4.10;;;12.10;99.90;;;;;;4192053;28;20629;-62
2021/10/22 05:37:25;;;;;;;8.53;4.63;;;12.10;99.90;;;;;;4189867;28;20091;-62
2021/10/22 05:39:26;;;;;;;11.30;7.67;;;12.10;99.90;;;;;;4191218;28;20231;-62
2021/10/22 05:41:27;;;;;;;13.97;6.83;;;12.10;99.90;;;;;;4190160;28;20032;-62
2021/10/22 05:43:28;;;;;;;10.57;6.13;;;12.10;99.90;;;;;;4191817;28;20094;-62
2021/10/22 05:45:31;;;;;;;11.73;6.47;;;12.10;99.90;;;;;;4190079;28;20033;-63
2021/10/22 05:47:32;;;;;;;8.57;5.57;;;12.10;99.90;;;;;;4190047;28;20041;-64
2021/10/22 05:49:35;;;;;;;13.77;7.13;;;12.20;99.90;;;;;;4189939;28;20098;-62
2021/10/22 05:51:37;;;;;;;10.47;6.03;;;12.20;99.90;;;;;;4191249;28;20459;-63
2021/10/22 05:53:38;;;;;;;11.97;7.93;;;12.20;99.90;;;;;;4173414;28;20033;-63
2021/10/22 05:55:39;;;;;;;14.73;8.70;;;12.40;99.90;;;;;;4189179;28;20823;-63
2021/10/22 05:57:40;;;;;;;20.83;16.27;;;12.60;99.90;;;;;;4190782;28;20044;-62
2021/10/22 05:59:41;;;;;;;19.77;15.20;;;12.60;99.90;;;;;;4189157;28;20037;-63
2021/10/22 06:01:42;;;;;;;15.73;13.40;;;12.60;99.90;;;;;;4191102;28;20045;-63
2021/10/22 06:03:44;;;;;;;12.43;9.60;;;12.60;99.90;;;;;;4190166;28;20121;-63
2021/10/22 06:05:51;;;;;;;11.27;7.03;;;12.60;99.90;;;;;;4190787;28;20045;-66
2021/10/22 06:07:52;;;;;;;11.27;6.50;;;12.60;99.90;;;;;;4189449;28;20036;-62
2021/10/22 06:09:53;;;;;;;8.47;5.63;;;12.50;99.90;;;;;;4190512;28;20036;-63
2021/10/22 06:11:54;;;;;;;8.73;5.13;;;12.50;99.90;;;;;;4189211;28;20048;-62
2021/10/22 06:13:55;;;;;;;12.73;5.77;;;12.60;99.90;;;;;;4191078;28;20021;-64
2021/10/22 06:15:57;;;;;;;11.53;6.27;;;12.60;99.90;;;;;;4189448;28;20036;-63
2021/10/22 06:17:58;;;;;;;7.57;4.97;;;12.60;99.90;;;;;;4189703;28;20048;-61
2021/10/22 06:20:07;;;;;;;13.67;6.00;;;12.60;99.90;;;;;;4189276;28;20069;-62
2021/10/22 06:22:33;;;;;;;13.27;6.50;;;12.70;99.90;;;;;;4190990;28;20106;-62
2021/10/22 06:24:35;;;;;;;18.83;6.80;;;12.70;99.90;;;;;;4190120;28;20020;-63
2021/10/22 06:26:39;;;;;;;10.27;6.03;;;12.80;99.90;;;;;;4190265;28;20542;-63
2021/10/22 06:28:41;;;;;;;14.37;6.20;;;12.80;99.90;;;;;;4190222;28;20089;-64
2021/10/22 06:30:42;;;;;;;12.03;6.87;;;12.90;99.90;;;;;;4189810;28;20041;-63
2021/10/22 06:32:43;;;;;;;12.60;7.13;;;12.90;99.90;;;;;;4190244;28;20036;-63
2021/10/22 06:34:44;;;;;;;13.77;7.37;;;12.90;99.90;;;;;;4190192;28;20020;-63
2021/10/22 06:36:45;;;;;;;10.03;7.03;;;13.00;99.90;;;;;;4190008;28;20056;-62
2021/10/22 06:38:46;;;;;;;10.87;5.60;;;13.10;99.90;;;;;;4189625;28;20473;-62
2021/10/22 06:40:53;;;;;;;15.07;6.17;;;13.20;99.90;;;;;;4190477;28;20036;-61
2021/10/22 06:42:54;;;;;;;7.30;5.17;;;13.30;99.90;;;;;;4189224;28;20094;-63
2021/10/22 06:44:55;;;;;;;9.27;4.90;;;13.50;99.90;;;;;;4190410;28;20468;-61
2021/10/22 06:46:56;;;;;;;11.20;5.67;;;13.80;99.90;;;;;;4188512;28;20105;-63
2021/10/22 06:48:57;;;;;;;11.10;5.87;;;14.20;99.90;;;;;;4189717;28;20516;-63
2021/10/22 06:51:00;;;;;;;11.63;6.00;;;14.50;99.90;;;;;;4188423;28;20074;-62
2021/10/22 06:53:01;;;;;;;12.97;6.27;;;15.00;99.90;;;;;;4190636;28;20468;-62
2021/10/22 06:55:03;;;;;;;12.27;5.67;;;15.40;99.90;;;;;;4188973;28;20032;-63
2021/10/22 06:57:04;;;;;;;9.77;5.47;;;15.80;99.90;;;;;;4190610;28;20392;-63
2021/10/22 06:59:05;;;;;;;8.03;4.17;;;16.20;99.90;;;;;;4188853;28;20463;-63
2021/10/22 07:01:06;;;;;;;15.32;4.82;;;16.50;99.90;;;;;;4190202;28;20495;-63
2021/10/22 07:03:07;;;;;;;8.10;4.78;;;16.80;99.90;;;;;;4189878;28;20044;-62
2021/10/22 07:05:14;;;;;;;11.43;4.40;;;17.10;99.90;;;;;;4188369;28;20048;-63
2021/10/22 07:07:16;;;;;;;9.50;4.47;;;17.60;99.90;;;;;;4189962;28;20741;-63
2021/10/22 07:09:17;;;;;;;7.15;3.25;;;17.90;99.90;;;;;;4188632;28;20110;-64
2021/10/22 07:11:19;;;;;;;7.40;3.75;;;17.80;99.90;;;;;;4189912;28;20046;-62
2021/10/22 07:13:23;;;;;;;4.65;3.30;;;17.60;99.90;;;;;;4189570;28;20846;-62
2021/10/22 07:15:26;;;;;;;9.27;3.53;;;17.70;99.90;;;;;;4189899;28;20089;-63
2021/10/22 07:17:27;;;;;;;8.27;2.70;;;18.20;99.90;;;;;;4188677;28;20058;-62
2021/10/22 07:19:28;;;;;;;4.82;3.80;;;18.50;99.90;;;;;;4189690;28;20041;-63
2021/10/22 07:21:29;;;;;;;6.90;3.50;;;18.70;99.90;;;;;;4187925;28;20052;-61
2021/10/22 07:23:34;;;;;;;8.57;2.80;;;19.00;99.90;;;;;;4190003;28;20542;-60
2021/10/22 07:25:38;;;;;;;3.53;2.80;;;19.10;99.90;;;;;;4188962;28;20020;-61
2021/10/22 07:27:39;;;;;;;3.13;2.50;;;19.20;99.90;;;;;;4189966;28;20050;-62
2021/10/22 07:29:40;;;;;;;3.67;1.92;;;19.20;99.90;;;;;;4187810;28;20041;-62
2021/10/22 07:31:41;;;;;;;4.22;2.20;;;19.00;99.90;;;;;;4171659;28;20045;-63
2021/10/22 07:33:43;;;;;;;5.85;2.58;;;18.60;99.90;;;;;;4189110;28;20037;-62
2021/10/22 07:35:45;;;;;;;10.27;3.92;;;18.40;99.90;;;;;;4190019;28;20024;-64
2021/10/22 07:37:46;;;;;;;15.57;4.53;;;18.30;99.90;;;;;;4189365;28;20365;-64
2021/10/22 07:39:47;;;;;;;9.35;3.08;;;18.30;99.90;;;;;;4189348;28;20040;-61
2021/10/22 07:41:49;;;;;;;12.40;3.05;;;18.40;99.90;;;;;;4188749;28;20050;-62
2021/10/22 07:43:50;;;;;;;5.43;2.33;;;18.50;99.90;;;;;;4188312;28;20036;-61
2021/10/22 07:45:51;;;;;;;6.00;2.35;;;18.60;99.90;;;;;;4189876;28;20542;-62
2021/10/22 07:47:52;;;;;;;7.53;2.90;;;18.70;99.90;;;;;;4187952;28;20036;-62
2021/10/22 07:49:54;;;;;;;10.25;4.72;;;18.60;99.90;;;;;;4190103;28;20044;-62
2021/10/22 07:51:55;;;;;;;11.80;3.28;;;18.40;99.90;;;;;;4188193;28;20037;-61
2021/10/22 07:53:56;;;;;;;9.57;2.65;;;18.30;99.90;;;;;;4190059;28;20954;-64
2021/10/22 07:55:57;;;;;;;4.43;1.98;;;18.20;99.90;;;;;;4189223;28;20029;-65
2021/10/22 07:57:58;;;;;;;2.33;1.95;;;18.10;99.90;;;;;;4190190;28;20090;-62
2021/10/22 08:00:00;;;;;;;4.18;2.53;;;18.10;99.90;;;;;;4187777;28;21073;-62
2021/10/22 08:02:01;;;;;;;5.03;1.95;;;18.00;99.90;;;;;;4189331;28;20044;-62
2021/10/22 08:04:04;;;;;;;6.95;3.08;;;17.80;99.90;;;;;;4188334;28;20033;-61
2021/10/22 08:06:09;;;;;;;8.23;3.15;;;17.80;99.90;;;;;;4189516;28;20017;-62
2021/10/22 08:08:11;;;;;;;7.38;3.28;;;17.70;99.90;;;;;;4189007;28;20510;-62
2021/10/22 08:10:12;;;;;;;13.38;3.72;;;17.60;99.90;;;;;;4189512;28;20044;-62
2021/10/22 08:12:15;;;;;;;8.95;4.70;;;17.40;99.90;;;;;;4189553;28;20086;-63
2021/10/22 08:14:16;;;;;;;19.80;5.03;;;17.20;99.90;;;;;;4188102;28;20124;-63
2021/10/22 08:16:18;;;;;;;38.95;4.93;;;17.30;99.90;;;;;;4189719;28;20393;-62
2021/10/22 08:18:19;;;;;;;12.13;4.13;;;17.30;99.90;;;;;;4191797;28;20044;-62
2021/10/22 08:20:23;;;;;;;15.95;4.15;;;17.20;99.90;;;;;;4193389;28;20373;-62
2021/10/22 08:22:27;;;;;;;9.73;3.10;;;17.20;99.90;;;;;;4192046;28;20514;-63
2021/10/22 08:24:29;;;;;;;12.93;4.78;;;17.10;99.90;;;;;;4192724;28;20098;-64
2021/10/22 08:26:31;;;;;;;19.98;3.83;;;17.00;99.90;;;;;;4192013;28;20033;-63
2021/10/22 08:28:32;;;;;;;16.95;4.32;;;16.90;99.90;;;;;;4192868;28;20799;-63
2021/10/22 08:30:35;;;;;;;5.70;2.40;;;16.80;99.90;;;;;;4191195;28;20056;-63
2021/10/22 08:32:37;;;;;;;7.40;2.90;;;16.60;99.90;;;;;;4192732;28;20078;-63
2021/10/22 08:34:38;;;;;;;3.55;2.20;;;16.50;99.90;;;;;;4192074;28;20511;-62
2021/10/22 08:36:39;;;;;;;6.93;2.25;;;16.30;99.90;;;;;;4192248;28;20774;-64
2021/10/22 08:38:41;;;;;;;3.10;1.95;;;16.20;99.90;;;;;;4191667;28;20074;-61
2021/10/22 08:40:42;;;;;;;8.93;2.67;;;16.20;99.90;;;;;;4191556;28;20090;-62
2021/10/22 08:42:45;;;;;;;8.05;2.20;;;16.20;99.90;;;;;;4191847;28;20469;-62
2021/10/22 08:44:46;;;;;;;6.57;3.05;;;16.30;99.90;;;;;;4191608;28;20067;-62
2021/10/22 08:46:48;;;;;;;3.85;1.88;;;16.40;99.90;;;;;;4191778;28;20038;-62
2021/10/22 08:48:50;;;;;;;9.05;3.13;;;16.50;99.90;;;;;;4191755;28;20024;-62
2021/10/22 08:50:52;;;;;;;12.07;2.33;;;16.60;99.90;;;;;;4191773;28;20554;-61
2021/10/22 08:52:53;;;;;;;9.45;2.38;;;16.60;99.90;;;;;;4189722;28;20052;-63
2021/10/22 08:54:56;;;;;;;5.10;2.47;;;16.60;99.90;;;;;;4191435;28;20090;-64
2021/10/22 08:56:58;;;;;;;7.85;2.03;;;16.70;99.90;;;;;;4190199;28;20075;-63
2021/10/22 08:58:59;;;;;;;5.30;1.85;;;16.90;99.90;;;;;;4191050;28;20857;-62
2021/10/22 09:01:00;;;;;;;5.40;2.10;;;17.00;99.90;;;;;;4190150;28;20024;-62
2021/10/22 09:03:13;;;;;;;8.57;2.10;;;17.30;99.90;;;;;;4192059;28;20465;-62
2021/10/22 09:05:24;;;;;;;10.43;2.15;;;17.40;99.90;;;;;;4189764;28;20045;-64
2021/10/22 09:07:39;;;;;;;3.30;1.65;;;17.60;99.90;;;;;;4191386;28;20492;-62
2021/10/22 09:09:40;;;;;;;5.70;1.30;;;17.80;99.90;;;;;;4190655;28;20074;-65
2021/10/22 09:11:47;;;;;;;1.50;1.40;;;17.90;99.90;;;;;;4192055;28;20032;-63
2021/10/22 09:14:14;;;;;;;1.40;0.88;;;18.00;99.50;;;;;;4189593;28;20033;-63
2021/10/22 09:16:23;;;;;;;3.33;1.13;;;18.10;99.00;;;;;;4192341;28;20441;-63
2021/10/22 09:18:28;;;;;;;2.45;1.23;;;18.40;98.60;;;;;;4190118;28;20163;-63
2021/10/22 09:20:29;;;;;;;2.28;1.65;;;18.60;98.90;;;;;;4189597;28;20417;-62
2021/10/22 09:22:33;;;;;;;1.48;1.17;;;18.90;98.60;;;;;;4189700;28;20040;-64
2021/10/22 09:24:34;;;;;;;6.22;1.15;;;19.10;98.10;;;;;;4191908;28;20032;-61
2021/10/22 09:26:35;;;;;;;5.07;1.50;;;19.20;97.60;;;;;;4190577;28;20147;-62
2021/10/22 09:28:37;;;;;;;3.20;1.20;;;19.10;97.70;;;;;;4190004;28;20041;-63
2021/10/22 09:30:45;;;;;;;1.70;1.17;;;18.80;98.30;;;;;;4189880;28;20040;-62
2021/10/22 09:32:48;;;;;;;4.93;1.73;;;18.70;98.60;;;;;;4191107;28;20062;-62
2021/10/22 09:34:52;;;;;;;2.80;1.67;;;18.40;98.60;;;;;;4191577;28;20035;-62
2021/10/22 09:36:53;;;;;;;4.78;1.63;;;18.40;98.90;;;;;;4190445;28;20086;-63
2021/10/22 09:39:08;;;;;;;3.25;1.63;;;18.50;98.60;;;;;;4190959;28;20078;-62
2021/10/22 09:41:09;;;;;;;2.47;0.93;;;18.50;97.60;;;;;;4190891;28;20032;-63
2021/10/22 09:43:33;;;;;;;1.92;0.90;;;18.70;97.70;;;;;;4190173;28;20032;-63
2021/10/22 09:45:34;;;;;;;5.28;1.38;;;18.80;97.50;;;;;;4190561;28;20061;-63
2021/10/22 09:47:35;;;;;;;1.70;0.90;;;18.70;97.10;;;;;;4190974;28;20078;-64
2021/10/22 09:49:43;;;;;;;3.50;0.70;;;18.70;97.10;;;;;;4189593;28;20717;-63
2021/10/22 09:51:48;;;;;;;6.68;0.75;;;18.80;96.20;;;;;;4190555;28;20485;-62
2021/10/22 09:53:49;;;;;;;3.30;0.80;;;18.80;95.80;;;;;;4190229;28;20078;-64
2021/10/22 09:56:02;;;;;;;1.10;0.70;;;18.80;95.80;;;;;;4191181;28;20078;-64
2021/10/22 09:58:06;;;;;;;4.80;0.90;;;18.70;94.90;;;;;;4190521;28;20024;-63
2021/10/22 10:00:11;;;;;;;1.90;0.82;;;18.50;95.40;;;;;;4190199;28;20052;-63
2021/10/22 10:02:12;;;;;;;8.38;1.92;;;18.40;95.40;;;;;;4190533;28;20020;-62
2021/10/22 10:04:16;;;;;;;2.38;0.70;;;18.40;94.90;;;;;;4192155;28;20036;-61
2021/10/22 10:06:17;;;;;;;3.63;0.80;;;18.20;94.80;;;;;;4189336;28;20496;-63
2021/10/22 10:08:19;;;;;;;2.72;0.50;;;18.20;94.80;;;;;;4191077;28;20029;-62
2021/10/22 10:10:20;;;;;;;1.95;0.70;;;18.20;94.50;;;;;;4189916;28;20086;-64
2021/10/22 10:12:21;;;;;;;1.05;0.70;;;18.10;94.50;;;;;;4191217;28;20078;-63
2021/10/22 10:14:27;;;;;;;3.30;0.90;;;18.10;94.50;;;;;;4190457;28;20557;-63
2021/10/22 10:16:33;;;;;;;4.00;0.77;;;18.20;94.50;;;;;;4191352;28;20028;-64
2021/10/22 10:18:41;;;;;;;1.40;0.60;;;18.30;94.20;;;;;;4189341;28;20037;-63
2021/10/22 10:20:43;;;;;;;7.97;1.05;;;18.40;93.60;;;;;;4190616;28;20089;-62
2021/10/22 10:22:46;;;;;;;1.30;0.70;;;18.40;93.60;;;;;;4188742;28;20089;-62
2021/10/22 10:24:49;;;;;;;1.77;0.60;;;18.40;93.60;;;;;;4190852;28;20029;-63
2021/10/22 10:27:07;;;;;;;1.80;0.50;;;18.40;93.10;;;;;;4189525;28;20048;-62
2021/10/22 10:29:26;;;;;;;5.63;1.00;;;18.50;92.20;;;;;;4190967;28;20082;-62
2021/10/22 10:31:46;;;;;;;2.80;0.60;;;18.40;92.30;;;;;;4189187;28;20641;-62
2021/10/22 10:33:48;;;;;;;0.82;0.50;;;18.20;91.30;;;;;;4191485;28;20707;-61